createdAt,value
2022-09-25T00:03:16.872Z,15.85
2022-09-25T00:07:20.369Z,15.84
2022-09-25T00:11:25.488Z,15.86
2022-09-25T00:15:29.329Z,15.86
2022-09-25T00:19:52.863Z,15.88
2022-09-25T00:23:55.876Z,15.89
2022-09-25T00:27:59.434Z,15.89
2022-09-25T00:32:03.243Z,15.90
2022-09-25T00:36:10.450Z,15.93
2022-09-25T00:40:14.173Z,15.94
2022-09-25T00:44:56.998Z,15.97
2022-09-25T00:49:03.532Z,16.00
2022-09-25T00:53:14.626Z,16.03
2022-09-25T00:57:27.476Z,16.05
2022-09-25T01:01:31.273Z,16.07
2022-09-25T01:05:37.756Z,16.12
2022-09-25T01:09:43.031Z,16.15
2022-09-25T01:13:46.130Z,16.18
2022-09-25T01:18:00.786Z,16.20
2022-09-25T01:22:13.148Z,16.21
2022-09-25T01:26:32.279Z,16.21
2022-09-25T01:30:43.375Z,16.22
2022-09-25T01:34:54.901Z,16.21
2022-09-25T01:39:05.741Z,16.22
2022-09-25T01:43:14.456Z,16.19
2022-09-25T01:47:25.263Z,16.17
2022-09-25T01:51:33.890Z,16.16
2022-09-25T01:55:41.984Z,16.14
2022-09-25T01:59:48.812Z,16.12
2022-09-25T02:04:01.230Z,16.13
2022-09-25T02:08:09.409Z,16.11
2022-09-25T02:12:16.846Z,16.11
2022-09-25T02:16:24.394Z,16.08
2022-09-25T02:20:34.559Z,16.07
2022-09-25T02:24:45.969Z,16.05
2022-09-25T02:28:53.913Z,16.03
2022-09-25T02:32:58.620Z,16.01
2022-09-25T02:37:03.478Z,15.99
2022-09-25T02:41:18.587Z,15.98
2022-09-25T02:45:35.555Z,15.97
2022-09-25T02:49:49.413Z,15.96
2022-09-25T02:54:01.766Z,15.93
2022-09-25T02:58:10.783Z,15.92
2022-09-25T03:02:16.618Z,15.89
2022-09-25T03:06:20.862Z,15.87
2022-09-25T03:10:28.435Z,15.86
2022-09-25T03:14:31.597Z,15.85
2022-09-25T03:18:35.832Z,15.86
2022-09-25T03:22:38.937Z,15.86
2022-09-25T03:26:44.431Z,15.85
2022-09-25T03:30:58.427Z,15.83
2022-09-25T03:35:02.374Z,15.79
2022-09-25T03:39:06.249Z,15.74
2022-09-25T03:47:14.000Z,15.62
2022-09-25T03:51:17.859Z,15.56
2022-09-25T03:55:22.528Z,15.53
2022-09-25T03:59:27.526Z,15.52
2022-09-25T04:08:15.900Z,15.20
2022-09-25T04:12:37.076Z,15.44
2022-09-25T04:16:42.368Z,15.29
2022-09-25T04:25:12.226Z,15.58
2022-09-25T04:29:18.298Z,15.27
2022-09-25T04:34:11.631Z,15.07
2022-09-25T04:38:16.893Z,15.22
2022-09-25T04:47:17.787Z,15.52
2022-09-25T04:51:22.696Z,15.35
2022-09-25T05:00:44.667Z,15.24
2022-09-25T05:04:48.482Z,15.51
2022-09-25T05:08:51.900Z,15.51
2022-09-25T05:12:58.731Z,15.53
2022-09-25T05:17:03.324Z,15.52
2022-09-25T05:21:07.132Z,15.55
2022-09-25T05:25:10.955Z,15.55
2022-09-25T05:29:15.891Z,15.52
2022-09-25T05:33:19.311Z,15.53
2022-09-25T05:37:22.805Z,15.57
2022-09-25T05:41:26.684Z,15.58
2022-09-25T05:45:31.585Z,15.64
2022-09-25T05:49:34.689Z,15.70
2022-09-25T05:53:38.733Z,15.77
2022-09-25T05:57:41.745Z,15.83
2022-09-25T06:01:46.719Z,15.91
2022-09-25T06:05:50.201Z,16.02
2022-09-25T06:09:54.022Z,16.10
2022-09-25T06:13:57.877Z,16.22
2022-09-25T06:18:03.347Z,16.29
2022-09-25T06:22:06.591Z,16.39
2022-09-25T06:26:11.111Z,16.49
2022-09-25T06:30:14.488Z,16.61
2022-09-25T06:34:19.460Z,16.73
2022-09-25T06:38:23.026Z,16.85
2022-09-25T06:42:26.082Z,16.96
2022-09-25T06:46:29.278Z,17.04
2022-09-25T06:50:40.785Z,17.13
2022-09-25T06:54:44.422Z,17.17
2022-09-25T06:58:47.744Z,17.20
2022-09-25T07:03:07.981Z,17.26
2022-09-25T07:07:14.222Z,17.40
2022-09-25T07:11:19.392Z,17.64
2022-09-25T07:15:24.446Z,18.00
2022-09-25T07:19:27.943Z,18.44
2022-09-25T07:23:34.121Z,18.88
2022-09-25T07:27:37.228Z,19.29
2022-09-25T07:31:40.844Z,19.67
2022-09-25T07:35:44.097Z,19.96
2022-09-25T07:39:48.985Z,20.22
2022-09-25T07:44:06.243Z,20.44
2022-09-25T07:48:15.306Z,20.66
2022-09-25T07:52:18.930Z,20.72
2022-09-25T07:56:23.707Z,20.69
2022-09-25T08:00:27.320Z,20.65
2022-09-25T08:04:30.935Z,20.71
2022-09-25T08:08:35.520Z,20.82
2022-09-25T08:12:41.590Z,20.99
2022-09-25T08:16:45.569Z,21.14
2022-09-25T08:20:48.651Z,21.37
2022-09-25T08:24:51.705Z,21.52
2022-09-25T08:28:57.508Z,21.72
2022-09-25T08:33:00.570Z,21.85
2022-09-25T08:37:03.706Z,21.93
2022-09-25T08:41:11.782Z,21.95
2022-09-25T08:45:42.835Z,21.90
2022-09-25T08:49:51.109Z,21.82
2022-09-25T08:53:54.616Z,21.77
2022-09-25T08:57:58.200Z,21.76
2022-09-25T09:02:12.341Z,21.85
2022-09-25T09:06:18.601Z,22.02
2022-09-25T09:10:29.875Z,22.29
2022-09-25T09:14:40.417Z,22.56
2022-09-25T09:18:45.656Z,22.93
2022-09-25T09:22:53.452Z,23.30
2022-09-25T09:27:16.497Z,23.75
2022-09-25T09:31:28.033Z,24.08
2022-09-25T09:35:44.758Z,24.30
2022-09-25T09:39:55.468Z,24.40
2022-09-25T09:44:19.789Z,24.47
2022-09-25T09:48:30.618Z,24.49
2022-09-25T09:52:40.254Z,24.43
2022-09-25T09:56:46.340Z,24.47
2022-09-25T10:00:50.554Z,24.55
2022-09-25T10:04:57.322Z,24.73
2022-09-25T10:09:01.711Z,25.00
2022-09-25T10:13:08.010Z,25.24
2022-09-25T10:17:13.605Z,25.48
2022-09-25T10:21:21.856Z,25.75
2022-09-25T10:25:38.942Z,26.06
2022-09-25T10:29:42.435Z,26.22
2022-09-25T10:34:01.319Z,26.46
2022-09-25T10:38:06.504Z,26.57
2022-09-25T10:42:36.553Z,26.63
2022-09-25T10:46:57.993Z,26.66
2022-09-25T10:51:09.104Z,26.59
2022-09-25T10:55:22.872Z,26.39
2022-09-25T10:59:28.358Z,26.11
2022-09-25T11:03:34.818Z,25.88
2022-09-25T11:07:38.784Z,25.75
2022-09-25T11:11:42.958Z,25.65
2022-09-25T11:15:54.021Z,25.67
2022-09-25T11:20:16.846Z,25.68
2022-09-25T11:24:25.724Z,25.63
2022-09-25T11:28:33.333Z,25.47
2022-09-25T11:32:52.669Z,25.23
2022-09-25T11:37:04.690Z,25.00
2022-09-25T11:41:21.000Z,24.84
2022-09-25T11:45:31.093Z,24.79
2022-09-25T11:49:38.603Z,24.89
2022-09-25T11:53:50.479Z,25.14
2022-09-25T11:58:06.439Z,25.51
2022-09-25T12:02:22.921Z,25.93
2022-09-25T12:06:45.312Z,26.25
2022-09-25T12:10:58.895Z,26.44
2022-09-25T12:15:12.733Z,26.58
2022-09-25T12:19:35.393Z,26.58
2022-09-25T12:23:43.486Z,26.61
2022-09-25T12:27:54.111Z,26.51
2022-09-25T12:32:06.200Z,26.35
2022-09-25T12:36:15.306Z,26.25
2022-09-25T12:40:27.764Z,26.21
2022-09-25T12:44:44.277Z,26.21
2022-09-25T12:48:52.034Z,26.13
2022-09-25T12:53:00.547Z,26.02
2022-09-25T12:57:15.332Z,25.91
2022-09-25T13:01:25.115Z,25.79
2022-09-25T13:05:34.906Z,25.71
2022-09-25T13:09:44.202Z,25.66
2022-09-25T13:13:53.847Z,25.62
2022-09-25T13:17:59.662Z,25.56
2022-09-25T13:22:05.886Z,25.51
2022-09-25T13:26:14.696Z,25.52
2022-09-25T13:30:25.446Z,25.56
2022-09-25T13:34:28.706Z,25.51
2022-09-25T13:38:49.889Z,25.46
2022-09-25T13:42:53.439Z,25.35
2022-09-25T13:47:55.856Z,25.24
2022-09-25T13:51:59.322Z,25.15
2022-09-25T13:56:25.125Z,25.11
2022-09-25T14:00:34.497Z,25.03
2022-09-25T14:04:41.385Z,25.01
2022-09-25T14:08:46.176Z,24.97
2022-09-25T14:12:50.924Z,24.97
2022-09-25T14:16:59.040Z,24.96
2022-09-25T14:21:07.001Z,24.96
2022-09-25T14:25:26.015Z,24.97
2022-09-25T14:29:34.049Z,25.01
2022-09-25T14:33:53.921Z,25.01
2022-09-25T14:38:14.184Z,24.94
2022-09-25T14:43:06.448Z,24.77
2022-09-25T14:47:11.827Z,24.50
2022-09-25T14:51:25.416Z,24.23
2022-09-25T14:55:36.031Z,24.01
2022-09-25T14:59:43.469Z,23.84
2022-09-25T15:03:50.058Z,23.73
2022-09-25T15:07:53.793Z,23.65
2022-09-25T15:11:58.472Z,23.63
2022-09-25T15:16:26.027Z,23.60
2022-09-25T15:20:31.903Z,23.54
2022-09-25T15:24:36.941Z,23.41
2022-09-25T15:28:43.145Z,23.26
2022-09-25T15:32:51.110Z,23.07
2022-09-25T15:36:55.356Z,22.89
2022-09-25T15:40:59.906Z,22.71
2022-09-25T15:45:38.738Z,22.54
2022-09-25T15:49:44.301Z,22.36
2022-09-25T15:53:53.735Z,22.21
2022-09-25T15:58:06.677Z,22.06
2022-09-25T16:02:39.987Z,21.94
2022-09-25T16:06:45.643Z,21.82
2022-09-25T16:10:50.309Z,21.69
2022-09-25T16:14:55.231Z,21.57
2022-09-25T16:19:02.218Z,21.44
2022-09-25T16:23:08.442Z,21.25
2022-09-25T16:27:24.543Z,21.13
2022-09-25T16:31:27.801Z,20.95
2022-09-25T16:36:04.521Z,20.75
2022-09-25T16:40:13.968Z,20.61
2022-09-25T16:44:19.511Z,20.41
2022-09-25T16:48:37.787Z,20.21
2022-09-25T16:52:43.470Z,20.01
2022-09-25T16:56:48.445Z,19.82
2022-09-25T17:00:52.669Z,19.64
2022-09-25T17:04:55.931Z,19.46
2022-09-25T17:09:01.638Z,19.23
2022-09-25T17:13:06.024Z,19.19
2022-09-25T17:17:11.638Z,19.06
2022-09-25T17:21:17.564Z,18.97
2022-09-25T17:25:27.448Z,18.88
2022-09-25T17:29:31.830Z,18.77
2022-09-25T17:33:35.268Z,18.70
2022-09-25T17:37:38.644Z,18.63
2022-09-25T17:41:43.633Z,18.54
2022-09-25T17:45:49.656Z,18.53
2022-09-25T17:49:52.870Z,18.49
2022-09-25T17:53:56.711Z,18.43
2022-09-25T17:58:02.117Z,18.39
2022-09-25T18:02:07.475Z,18.34
2022-09-25T18:06:11.197Z,18.31
2022-09-25T18:10:15.829Z,18.28
2022-09-25T18:14:20.648Z,18.22
2022-09-25T18:18:25.092Z,18.23
2022-09-25T18:22:27.934Z,18.23
2022-09-25T18:26:31.963Z,18.28
2022-09-25T18:30:38.798Z,18.21
2022-09-25T18:34:41.911Z,18.26
2022-09-25T18:38:45.450Z,18.25
2022-09-25T18:42:50.432Z,18.20
2022-09-25T18:46:56.019Z,18.23
2022-09-25T18:51:00.547Z,18.22
2022-09-25T18:55:05.510Z,18.22
2022-09-25T18:59:11.363Z,18.23
2022-09-25T19:03:16.931Z,18.24
2022-09-25T19:07:24.861Z,18.23
2022-09-25T19:11:40.063Z,18.23
2022-09-25T19:15:51.309Z,18.20
2022-09-25T19:19:59.859Z,18.18
2022-09-25T19:24:06.659Z,18.15
2022-09-25T19:28:10.581Z,18.06
2022-09-25T19:32:16.382Z,18.02
2022-09-25T19:36:24.623Z,17.93
2022-09-25T19:40:40.696Z,17.79
2022-09-25T19:44:44.301Z,17.64
2022-09-25T19:48:48.847Z,17.51
2022-09-25T19:52:55.234Z,17.40
2022-09-25T19:57:00.056Z,17.26
2022-09-25T20:01:04.037Z,17.15
2022-09-25T20:05:09.492Z,17.09
2022-09-25T20:09:15.075Z,17.03
2022-09-25T20:13:18.228Z,16.98
2022-09-25T20:17:21.732Z,16.95
2022-09-25T20:21:25.843Z,16.94
2022-09-25T20:25:30.745Z,16.91
2022-09-25T20:29:34.126Z,16.87
2022-09-25T20:33:38.015Z,16.83
2022-09-25T20:37:41.940Z,16.81
2022-09-25T20:41:46.722Z,16.78
2022-09-25T20:45:57.458Z,16.75
2022-09-25T20:50:01.148Z,16.70
2022-09-25T20:54:07.067Z,16.63
2022-09-25T20:58:11.641Z,16.60
2022-09-25T21:02:15.384Z,16.53
2022-09-25T21:06:20.486Z,16.46
2022-09-25T21:10:24.102Z,16.41
2022-09-25T21:14:30.384Z,16.37
2022-09-25T21:18:36.612Z,16.32
2022-09-25T21:22:40.768Z,16.24
2022-09-25T21:26:44.508Z,16.20
2022-09-25T21:30:48.992Z,16.15
2022-09-25T21:34:52.083Z,16.08
2022-09-25T21:38:55.428Z,16.05
2022-09-25T21:42:59.135Z,16.05
2022-09-25T21:47:04.136Z,16.06
2022-09-25T21:51:09.286Z,16.08
2022-09-25T21:55:12.692Z,16.09
2022-09-25T21:59:17.038Z,16.12
2022-09-25T22:03:21.772Z,16.13
2022-09-25T22:07:25.329Z,16.20
2022-09-25T22:11:29.733Z,16.21
2022-09-25T22:15:32.718Z,16.28
2022-09-25T22:19:37.978Z,16.31
2022-09-25T22:23:41.498Z,16.35
2022-09-25T22:27:44.912Z,16.35
2022-09-25T22:31:48.647Z,16.36
2022-09-25T22:36:02.174Z,16.37
2022-09-25T22:40:06.137Z,16.36
2022-09-25T22:44:09.650Z,16.35
2022-09-25T22:48:12.663Z,16.35
2022-09-25T22:52:17.452Z,16.35
2022-09-25T22:56:22.639Z,16.34
2022-09-25T23:00:25.736Z,16.33
2022-09-25T23:04:29.287Z,16.33
